Time;durP1;ratioP1;P1;durP2;ratioP2;P2;SDS_P1;SDS_P2;PMS_P1;PMS_P2;Temp;Humidity;BMP_temperature;BMP_pressure;BME280_temperature;BME280_humidity;BME280_pressure;Samples;Min_cycle;Max_cycle;Signal;HPM_P1;HPM_P2
2021/09/27 00:02:19;;;;;;;14.68;9.77;;;20.20;96.80;;;;;;5035086;28;20104;-48
2021/09/27 00:04:45;;;;;;;14.93;9.55;;;20.10;96.80;;;;;;5034798;28;20454;-49
2021/09/27 00:07:10;;;;;;;17.27;9.95;;;20.10;96.80;;;;;;5034774;28;20052;-49
2021/09/27 00:09:36;;;;;;;18.08;11.02;;;20.10;97.00;;;;;;5034767;28;20152;-50
2021/09/27 00:12:04;;;;;;;19.48;11.90;;;19.90;97.40;;;;;;5030615;28;20507;-50
2021/09/27 00:14:30;;;;;;;16.02;12.82;;;19.40;98.20;;;;;;5033449;28;20121;-49
2021/09/27 00:16:56;;;;;;;16.60;12.18;;;19.40;98.50;;;;;;5035053;28;20022;-49
2021/09/27 00:19:24;;;;;;;16.77;12.07;;;19.50;98.20;;;;;;5032222;28;20507;-49
2021/09/27 00:21:52;;;;;;;23.65;11.95;;;19.60;98.00;;;;;;5035525;28;20041;-48
2021/09/27 00:24:19;;;;;;;15.55;11.43;;;19.60;98.10;;;;;;5013075;28;20038;-49
2021/09/27 00:26:45;;;;;;;14.15;10.85;;;19.60;98.20;;;;;;5034464;28;20033;-49
2021/09/27 00:29:11;;;;;;;13.07;10.68;;;19.60;98.00;;;;;;5035053;28;20487;-49
2021/09/27 00:31:37;;;;;;;17.45;11.80;;;19.70;97.90;;;;;;5015873;28;20128;-49
2021/09/27 00:34:03;;;;;;;13.48;10.00;;;19.70;97.80;;;;;;5033750;28;20029;-48
2021/09/27 00:36:31;;;;;;;16.25;9.25;;;19.70;98.00;;;;;;5034158;28;20049;-49
2021/09/27 00:38:58;;;;;;;13.57;9.70;;;19.50;97.90;;;;;;5034885;28;20086;-50
2021/09/27 00:41:25;;;;;;;10.98;9.65;;;19.40;98.10;;;;;;5034028;28;20470;-48
2021/09/27 00:43:52;;;;;;;13.27;9.88;;;19.30;98.30;;;;;;5034117;28;20457;-49
2021/09/27 00:46:23;;;;;;;18.25;10.43;;;19.30;98.60;;;;;;5033156;28;20560;-49
2021/09/27 00:48:50;;;;;;;15.25;11.13;;;19.10;98.60;;;;;;5034241;28;20457;-49
2021/09/27 00:51:20;;;;;;;12.95;10.25;;;19.10;98.80;;;;;;5033989;28;20038;-49
2021/09/27 00:54:10;;;;;;;12.35;9.95;;;19.10;98.90;;;;;;5033550;28;20040;-50
2021/09/27 00:56:47;;;;;;;14.40;10.38;;;19.00;98.90;;;;;;5033137;28;20068;-47
2021/09/27 00:59:14;;;;;;;14.55;10.25;;;19.10;99.10;;;;;;5033930;28;20033;-50
2021/09/27 01:01:41;;;;;;;16.10;10.25;;;19.10;99.10;;;;;;5033347;28;20033;-50
2021/09/27 01:04:08;;;;;;;17.55;10.45;;;19.20;99.10;;;;;;5033970;28;20029;-50
2021/09/27 01:06:47;;;;;;;17.27;9.85;;;19.20;99.10;;;;;;5015868;28;20049;-50
2021/09/27 01:10:03;;;;;;;17.20;11.27;;;19.20;99.30;;;;;;5023800;28;20033;-48
2021/09/27 01:12:56;;;;;;;14.13;10.05;;;19.20;99.40;;;;;;4952947;29;20062;-48
2021/09/27 01:15:42;;;;;;;15.35;8.82;;;19.30;99.20;;;;;;4932442;29;20047;-49
2021/09/27 01:18:32;;;;;;;15.55;9.95;;;19.30;99.50;;;;;;4953240;29;20039;-48
2021/09/27 01:21:11;;;;;;;15.32;10.05;;;19.10;99.70;;;;;;4952609;29;20508;-49
2021/09/27 01:23:46;;;;;;;14.25;9.90;;;;;;;;;;4953224;29;20035;-48
2021/09/27 01:26:18;;;;;;;19.15;10.23;;;;;;;;;;4953663;29;20051;-50
2021/09/27 01:28:44;;;;;;;;;;;;;;;;;;4943834;29;20089;-50
2021/09/27 01:31:29;;;;;;;15.43;10.27;;;;;;;;;;4953011;28;20457;-48
2021/09/27 01:34:16;;;;;;;16.65;10.38;;;;;;;;;;4951439;29;20147;-47
2021/09/27 01:37:11;;;;;;;15.70;9.57;;;;;;;;;;4952700;29;20047;-47
2021/09/27 01:39:42;;;;;;;17.00;9.65;;;;;;;;;;4914300;29;20480;-50
2021/09/27 01:42:10;;;;;;;14.50;9.75;;;;;;;;;;4917094;28;20118;-49
2021/09/27 01:44:52;;;;;;;14.20;10.60;;;18.80;99.90;;;;;;4972275;28;20045;-50
2021/09/27 01:47:32;;;;;;;15.35;10.82;;;19.00;99.90;;;;;;4970551;28;20149;-47
2021/09/27 01:50:08;;;;;;;15.50;9.90;;;19.00;99.90;;;;;;4965802;28;20043;-49
2021/09/27 01:52:56;;;;;;;21.15;10.38;;;;;;;;;;4971378;28;20035;-48
2021/09/27 01:55:40;;;;;;;16.05;10.18;;;;;;;;;;4894467;29;20662;-50
2021/09/27 01:58:12;;;;;;;15.77;10.50;;;;;;;;;;4891555;29;20043;-50
2021/09/27 02:00:59;;;;;;;16.10;10.43;;;;;;;;;;4892954;29;20509;-48
2021/09/27 02:03:36;;;;;;;20.17;10.25;;;;;;;;;;4877931;29;20049;-51
2021/09/27 02:06:25;;;;;;;17.48;10.43;;;;;;;;;;4877892;29;20116;-49
2021/09/27 02:08:56;;;;;;;13.50;10.00;;;;;;;;;;4859370;29;20042;-49
2021/09/27 02:11:24;;;;;;;12.18;10.07;;;;;;;;;;4859292;29;20121;-48
2021/09/27 02:13:55;;;;;;;18.05;10.38;;;;;;;;;;4859146;29;20479;-48
2021/09/27 02:16:50;;;;;;;20.05;10.18;;;;;;;;;;4871258;29;20092;-48
2021/09/27 02:19:40;;;;;;;16.27;11.23;;;;;;;;;;4859337;29;20520;-48
2021/09/27 02:22:11;;;;;;;14.80;10.40;;;;;;;;;;4859245;29;20069;-50
2021/09/27 02:24:48;;;;;;;18.10;10.35;;;;;;;;;;4859116;29;20037;-49
2021/09/27 02:27:14;;;;;;;16.98;9.52;;;;;;;;;;4859095;29;20150;-48
2021/09/27 02:29:40;;;;;;;13.52;10.35;;;;;;;;;;4859113;29;20498;-49
2021/09/27 02:32:16;;;;;;;19.40;10.32;;;;;;;;;;4881067;29;20044;-48
2021/09/27 02:34:51;;;;;;;16.45;10.43;;;;;;;;;;4915025;29;20067;-48
2021/09/27 02:37:23;;;;;;;17.67;9.38;;;;;;;;;;4914988;29;20111;-49
2021/09/27 02:39:53;;;;;;;16.25;10.75;;;;;;;;;;4915065;29;20044;-49
2021/09/27 02:42:43;;;;;;;15.63;9.52;;;;;;;;;;4916643;29;20068;-48
2021/09/27 02:45:10;;;;;;;15.38;10.25;;;;;;;;;;4858667;29;20046;-49
2021/09/27 02:47:46;;;;;;;17.52;9.98;;;;;;;;;;4844551;29;20089;-47
2021/09/27 02:50:17;;;;;;;13.98;9.63;;;;;;;;;;4844957;29;20067;-48
2021/09/27 02:52:43;;;;;;;14.83;9.47;;;;;;;;;;4844342;29;20088;-50
2021/09/27 02:55:19;;;;;;;16.40;9.50;;;;;;;;;;4860297;29;20041;-48
2021/09/27 02:57:48;;;;;;;17.05;10.13;;;;;;;;;;4862843;29;20037;-48
2021/09/27 03:00:19;;;;;;;16.25;10.82;;;;;;;;;;4936031;29;20032;-50
2021/09/27 03:03:01;;;;;;;15.73;9.80;;;;;;;;;;4906180;29;20036;-48
2021/09/27 03:05:43;;;;;;;16.33;9.98;;;;;;;;;;4937515;29;20035;-49
2021/09/27 03:08:14;;;;;;;14.90;10.57;;;;;;;;;;4937981;29;20550;-49
2021/09/27 03:10:41;;;;;;;17.40;11.07;;;;;;;;;;4906077;29;20039;-50
2021/09/27 03:13:25;;;;;;;18.08;10.55;;;;;;;;;;4921473;29;20032;-49
2021/09/27 03:16:07;;;;;;;15.27;11.27;;;;;;;;;;4937426;29;20032;-49
2021/09/27 03:18:57;;;;;;;17.13;11.68;;;;;;;;;;4937451;29;20031;-48
2021/09/27 03:21:36;;;;;;;15.70;11.32;;;;;;;;;;4953063;28;20033;-49
2021/09/27 03:24:23;;;;;;;13.10;10.15;;;18.60;99.90;;;;;;5017050;28;20029;-48
2021/09/27 03:27:04;;;;;;;16.73;10.82;;;18.50;99.90;;;;;;5017131;28;20038;-50
2021/09/27 03:29:36;;;;;;;14.68;10.52;;;;;;;;;;5016983;28;20026;-48
2021/09/27 03:32:30;;;;;;;16.85;12.07;;;18.40;99.90;;;;;;5016772;28;20045;-48
2021/09/27 03:35:44;;;;;;;16.67;12.13;;;18.40;99.90;;;;;;5016769;28;20135;-49
2021/09/27 03:38:31;;;;;;;18.30;13.32;;;18.30;99.90;;;;;;5016690;28;20108;-47
2021/09/27 03:41:07;;;;;;;19.73;12.30;;;18.30;99.90;;;;;;4998441;28;20117;-47
2021/09/27 03:43:47;;;;;;;21.20;13.23;;;18.30;99.90;;;;;;5016626;28;20034;-47
2021/09/27 03:46:36;;;;;;;17.75;12.30;;;18.40;99.90;;;;;;5016614;28;20041;-47
2021/09/27 03:49:24;;;;;;;19.25;12.98;;;18.40;99.90;;;;;;5016440;28;20489;-47
2021/09/27 03:51:52;;;;;;;14.55;12.00;;;18.30;99.90;;;;;;5016073;28;20026;-48
2021/09/27 03:54:32;;;;;;;16.40;12.95;;;18.30;99.90;;;;;;4997538;28;20041;-48
2021/09/27 03:57:39;;;;;;;22.05;13.70;;;18.30;99.90;;;;;;5016379;28;20489;-49
2021/09/27 04:00:10;;;;;;;19.27;14.32;;;18.20;99.90;;;;;;4975178;28;20066;-48
2021/09/27 04:02:59;;;;;;;19.48;13.88;;;18.20;99.90;;;;;;4942883;28;20035;-48
2021/09/27 04:05:31;;;;;;;21.27;15.85;;;18.30;99.90;;;;;;4975155;28;20061;-48
2021/09/27 04:08:06;;;;;;;;;;;18.30;99.90;;;;;;4975432;28;20031;-48
2021/09/27 04:10:50;;;;;;;24.50;16.23;;;18.20;99.90;;;;;;4974916;28;20001;-49
2021/09/27 04:13:24;;;;;;;26.38;16.98;;;18.20;99.90;;;;;;4974630;28;20023;-47
2021/09/27 04:16:01;;;;;;;23.52;17.45;;;18.10;99.90;;;;;;4974830;28;20027;-47
2021/09/27 04:18:53;;;;;;;28.58;19.08;;;18.00;99.90;;;;;;4972189;28;20502;-48
2021/09/27 04:21:31;;;;;;;25.95;18.20;;;18.10;99.90;;;;;;4974707;28;20037;-50
2021/09/27 04:24:17;;;;;;;25.17;17.10;;;18.10;99.90;;;;;;4974607;28;20042;-47
2021/09/27 04:26:45;;;;;;;27.67;17.25;;;18.00;99.90;;;;;;4981775;28;20043;-49
2021/09/27 04:29:37;;;;;;;29.30;15.90;;;17.90;99.90;;;;;;4982738;28;20022;-46
2021/09/27 04:32:29;;;;;;;31.77;19.23;;;18.00;99.90;;;;;;4985331;28;20110;-48
2021/09/27 04:35:15;;;;;;;23.70;15.85;;;18.00;99.90;;;;;;4980353;28;20105;-47
2021/09/27 04:37:44;;;;;;;21.58;16.70;;;18.00;99.90;;;;;;5006157;28;20042;-47
2021/09/27 04:40:13;;;;;;;23.77;17.23;;;18.00;99.90;;;;;;5015240;28;20032;-48
2021/09/27 04:42:57;;;;;;;30.33;17.95;;;18.10;99.90;;;;;;5025091;28;20022;-47
2021/09/27 04:45:41;;;;;;;21.15;16.70;;;18.10;99.90;;;;;;5025417;28;20084;-47
2021/09/27 04:48:11;;;;;;;23.17;15.93;;;18.20;99.90;;;;;;5025576;28;20017;-46
2021/09/27 04:50:53;;;;;;;23.00;16.20;;;18.20;99.90;;;;;;5004911;28;20034;-46
2021/09/27 04:53:43;;;;;;;21.52;15.30;;;18.20;99.90;;;;;;5015617;28;20088;-46
2021/09/27 04:56:37;;;;;;;19.42;14.23;;;18.20;99.90;;;;;;5018005;28;20026;-47
2021/09/27 04:59:14;;;;;;;21.85;13.77;;;18.20;99.90;;;;;;5025157;28;20029;-48
2021/09/27 05:01:55;;;;;;;15.23;12.48;;;18.20;99.90;;;;;;5025026;28;20022;-47
2021/09/27 05:04:47;;;;;;;18.13;12.00;;;18.20;99.90;;;;;;5024739;28;20017;-48
2021/09/27 05:07:40;;;;;;;18.00;11.25;;;18.30;99.90;;;;;;5021873;28;20504;-47
2021/09/27 05:10:23;;;;;;;19.73;11.32;;;18.30;99.90;;;;;;5024783;28;20504;-48
2021/09/27 05:13:02;;;;;;;17.77;11.98;;;18.40;99.90;;;;;;5025132;28;20028;-47
2021/09/27 05:15:41;;;;;;;19.83;12.07;;;18.40;99.90;;;;;;5017321;28;20030;-48
2021/09/27 05:18:36;;;;;;;16.90;11.70;;;18.60;99.90;;;;;;4996592;28;20076;-47
2021/09/27 05:21:37;;;;;;;17.60;10.95;;;18.60;99.90;;;;;;5029011;28;20033;-48
2021/09/27 05:24:30;;;;;;;20.15;10.68;;;18.80;99.90;;;;;;4961461;28;20433;-48
2021/09/27 05:27:20;;;;;;;15.93;10.65;;;18.80;99.90;;;;;;4955995;28;20043;-48
2021/09/27 05:29:59;;;;;;;17.52;12.95;;;18.80;99.90;;;;;;4964051;28;20039;-47
2021/09/27 05:32:36;;;;;;;16.30;12.93;;;18.80;99.90;;;;;;4972985;28;20034;-45
2021/09/27 05:35:13;;;;;;;22.75;13.73;;;18.60;99.90;;;;;;4973156;28;20138;-47
2021/09/27 05:38:08;;;;;;;21.40;12.82;;;18.60;99.90;;;;;;4956933;28;20043;-48
2021/09/27 05:40:45;;;;;;;16.02;12.85;;;18.70;99.90;;;;;;4973243;28;20041;-50
2021/09/27 05:43:23;;;;;;;19.05;12.98;;;18.80;99.90;;;;;;4972212;28;20078;-50
2021/09/27 05:46:10;;;;;;;17.25;12.00;;;19.10;99.90;;;;;;4969805;28;20045;-51
2021/09/27 05:49:06;;;;;;;17.23;11.48;;;19.20;99.90;;;;;;4971993;28;20038;-50
2021/09/27 05:51:37;;;;;;;18.40;9.93;;;19.40;99.90;;;;;;4956508;28;20049;-51
2021/09/27 05:54:25;;;;;;;24.80;10.60;;;19.60;99.90;;;;;;4972186;28;20038;-50
2021/09/27 05:57:02;;;;;;;20.42;10.70;;;19.60;99.90;;;;;;4977789;28;20027;-49
2021/09/27 06:00:02;;;;;;;16.10;9.32;;;19.80;99.90;;;;;;4973870;28;20077;-51
2021/09/27 06:02:56;;;;;;;17.38;9.30;;;19.90;99.90;;;;;;5031735;28;20033;-49
2021/09/27 06:05:25;;;;;;;18.10;8.75;;;20.00;99.90;;;;;;5030899;28;20033;-49
2021/09/27 06:08:11;;;;;;;18.48;9.15;;;20.00;99.90;;;;;;5029633;28;20022;-49
2021/09/27 06:10:44;;;;;;;16.38;9.07;;;20.20;99.90;;;;;;5030367;28;20041;-48
2021/09/27 06:13:26;;;;;;;14.60;9.13;;;20.40;99.90;;;;;;5031421;28;20029;-50
2021/09/27 06:16:00;;;;;;;16.27;9.13;;;20.50;99.90;;;;;;5032226;28;20427;-50
2021/09/27 06:19:07;;;;;;;17.35;9.52;;;20.40;99.90;;;;;;5028462;28;20021;-48
2021/09/27 06:21:54;;;;;;;20.65;10.57;;;20.50;99.90;;;;;;4952496;29;20027;-48
2021/09/27 06:24:59;;;;;;;18.73;10.38;;;20.70;99.90;;;;;;4947368;28;20464;-51
2021/09/27 06:27:53;;;;;;;18.38;10.52;;;20.90;99.90;;;;;;4951863;28;20083;-51
2021/09/27 06:30:47;;;;;;;19.30;10.27;;;21.20;99.90;;;;;;4933257;29;20036;-51
2021/09/27 06:33:31;;;;;;;17.75;10.70;;;21.20;99.90;;;;;;4929796;29;20124;-53
2021/09/27 06:35:59;;;;;;;19.73;10.18;;;21.50;99.90;;;;;;4932676;29;20087;-50
2021/09/27 06:38:31;;;;;;;17.88;9.98;;;21.80;99.90;;;;;;4914399;29;20052;-50
2021/09/27 06:40:58;;;;;;;16.70;9.80;;;21.90;99.90;;;;;;4930451;29;20083;-49
2021/09/27 06:43:26;;;;;;;17.10;9.65;;;22.00;99.90;;;;;;4932516;29;20119;-50
2021/09/27 06:45:54;;;;;;;15.98;8.75;;;22.20;99.90;;;;;;4932964;29;20464;-47
2021/09/27 06:48:21;;;;;;;17.20;9.48;;;22.50;99.90;;;;;;4931108;29;20143;-50
2021/09/27 06:50:48;;;;;;;17.05;8.18;;;22.70;99.90;;;;;;4926350;29;20119;-51
2021/09/27 06:53:15;;;;;;;15.07;7.55;;;23.00;99.90;;;;;;5002480;28;20121;-48
2021/09/27 06:55:41;;;;;;;16.17;7.75;;;23.50;99.90;;;;;;5010901;28;20022;-49
2021/09/27 06:58:07;;;;;;;17.98;7.80;;;24.00;99.90;;;;;;5011035;28;20154;-52
2021/09/27 07:00:33;;;;;;;14.35;7.25;;;24.20;99.90;;;;;;5009480;28;20117;-49
2021/09/27 07:03:00;;;;;;;19.55;8.32;;;24.40;98.00;;;;;;4993981;28;20042;-52
2021/09/27 07:05:26;;;;;;;14.25;7.07;;;25.20;97.50;;;;;;5006005;28;20038;-52
2021/09/27 07:07:51;;;;;;;17.08;6.63;;;25.00;99.90;;;;;;5011132;28;20108;-51
2021/09/27 07:10:21;;;;;;;14.35;6.53;;;25.10;99.90;;;;;;5012858;28;20189;-52
2021/09/27 07:12:47;;;;;;;23.67;7.20;;;25.70;99.90;;;;;;5011837;28;20450;-52
2021/09/27 07:15:14;;;;;;;16.48;5.97;;;25.70;99.20;;;;;;5011169;28;20054;-51
2021/09/27 07:17:40;;;;;;;18.70;7.93;;;25.30;98.90;;;;;;4959997;28;20084;-52
2021/09/27 07:20:18;;;;;;;18.13;7.30;;;25.30;99.30;;;;;;5011017;28;20138;-50
2021/09/27 07:22:44;;;;;;;13.80;6.25;;;25.20;98.70;;;;;;5008676;28;20042;-50
2021/09/27 07:25:11;;;;;;;17.73;6.80;;;25.50;98.70;;;;;;4983149;28;20370;-50
2021/09/27 07:27:37;;;;;;;20.58;6.57;;;25.80;98.30;;;;;;5008864;28;20096;-50
2021/09/27 07:30:05;;;;;;;15.02;7.88;;;26.50;96.90;;;;;;5012365;28;20037;-53
2021/09/27 07:32:32;;;;;;;14.98;6.28;;;26.50;96.30;;;;;;4996345;28;20060;-50
2021/09/27 07:34:57;;;;;;;12.23;5.95;;;26.30;96.10;;;;;;4994961;28;20038;-49
2021/09/27 07:37:23;;;;;;;16.38;6.40;;;26.50;96.10;;;;;;5013467;28;20050;-51
2021/09/27 07:39:49;;;;;;;23.13;5.72;;;26.90;95.60;;;;;;4995149;28;20046;-51
2021/09/27 07:42:15;;;;;;;16.40;6.10;;;27.70;96.10;;;;;;4969535;28;20050;-52
2021/09/27 07:44:42;;;;;;;21.08;6.97;;;26.60;95.00;;;;;;5014737;28;20036;-49
2021/09/27 07:47:08;;;;;;;16.45;6.70;;;27.10;95.40;;;;;;5016061;28;20037;-51
2021/09/27 07:49:34;;;;;;;20.77;6.18;;;27.40;94.70;;;;;;5010686;28;20034;-54
2021/09/27 07:52:00;;;;;;;21.17;5.72;;;;;;;;;;4992441;28;20049;-53
2021/09/27 07:54:27;;;;;;;12.10;6.07;;;;;;;;;;5014182;28;20037;-51
2021/09/27 07:56:53;;;;;;;15.73;5.47;;;;;;;;;;5013872;28;20030;-48
2021/09/27 07:59:19;;;;;;;16.35;6.47;;;28.70;98.60;;;;;;5016262;28;20034;-52
2021/09/27 08:01:45;;;;;;;14.80;6.22;;;29.10;95.40;;;;;;5011740;28;20033;-51
2021/09/27 08:04:13;;;;;;;15.93;5.55;;;29.20;88.60;;;;;;5013646;28;20425;-51
2021/09/27 08:06:39;;;;;;;16.83;6.25;;;;;;;;;;4991975;28;20625;-50
2021/09/27 08:09:06;;;;;;;12.63;5.53;;;;;;;;;;5013946;28;20037;-51
2021/09/27 08:11:33;;;;;;;14.63;5.78;;;29.60;91.90;;;;;;5014418;28;20045;-51
2021/09/27 08:13:59;;;;;;;18.88;6.38;;;29.20;91.50;;;;;;5015564;28;20041;-52
2021/09/27 08:16:25;;;;;;;15.90;6.40;;;29.30;91.70;;;;;;5013156;28;20034;-48
2021/09/27 08:18:51;;;;;;;17.13;6.30;;;;;;;;;;4990221;28;20089;-52
2021/09/27 08:21:18;;;;;;;17.35;6.00;;;;;;;;;;5013430;28;20030;-54
2021/09/27 08:23:44;;;;;;;16.58;5.93;;;;;;;;;;5013390;28;20472;-47
2021/09/27 08:26:11;;;;;;;13.93;5.35;;;30.90;82.30;;;;;;4992278;28;20087;-52
2021/09/27 08:28:38;;;;;;;12.55;5.80;;;31.00;93.60;;;;;;5006050;28;20117;-51
2021/09/27 08:31:10;;;;;;;16.52;5.20;;;30.80;92.20;;;;;;5014573;28;20475;-54
2021/09/27 08:33:36;;;;;;;12.02;5.63;;;31.10;86.50;;;;;;5012970;28;20030;-52
2021/09/27 08:36:05;;;;;;;14.52;7.60;;;31.60;83.40;;;;;;5010698;28;20056;-52
2021/09/27 08:38:37;;;;;;;12.82;5.60;;;31.20;80.60;;;;;;5008033;28;20057;-52
2021/09/27 08:41:21;;;;;;;14.48;5.65;;;30.60;81.10;;;;;;5014905;28;20041;-49
2021/09/27 08:47:15;;;;;;;17.10;5.80;;;;;;;;;;5009873;28;20143;-50
2021/09/27 08:49:44;;;;;;;17.58;6.55;;;;;;;;;;5011650;28;20018;-52
2021/09/27 08:52:14;;;;;;;16.27;6.13;;;31.80;91.20;;;;;;5008465;28;20033;-52
2021/09/27 08:54:41;;;;;;;10.00;4.72;;;32.00;78.20;;;;;;5006700;28;20390;-53
2021/09/27 08:57:09;;;;;;;14.75;5.60;;;;;;;;;;5005890;28;20029;-49
2021/09/27 08:59:55;;;;;;;18.15;5.80;;;32.00;84.30;;;;;;5012427;28;20488;-50
2021/09/27 09:02:41;;;;;;;14.32;6.07;;;;;;;;;;4974676;28;20039;-48
2021/09/27 09:05:20;;;;;;;12.48;5.38;;;;;;;;;;4979532;28;20038;-53
2021/09/27 09:08:09;;;;;;;16.58;5.95;;;;;;;;;;4990281;28;20050;-49
2021/09/27 09:10:59;;;;;;;14.18;6.45;;;33.20;74.40;;;;;;4932208;29;20040;-51
2021/09/27 09:13:30;;;;;;;17.33;6.63;;;;;;;;;;4934281;29;20032;-51
2021/09/27 09:16:01;;;;;;;10.05;5.80;;;33.50;85.00;;;;;;4933289;29;20051;-50
2021/09/27 09:18:30;;;;;;;;;;;33.10;75.90;;;;;;4934454;29;20480;-51
2021/09/27 09:21:04;;;;;;;12.20;5.53;;;33.40;76.80;;;;;;4914311;29;19938;-53
2021/09/27 09:23:38;;;;;;;15.63;7.10;;;33.50;77.60;;;;;;4913975;29;20119;-49
2021/09/27 09:26:07;;;;;;;12.18;5.85;;;33.60;72.40;;;;;;4895839;29;20059;-53
2021/09/27 09:28:35;;;;;;;11.73;5.68;;;34.20;72.90;;;;;;4894164;29;20041;-52
2021/09/27 09:31:07;;;;;;;15.00;5.90;;;33.90;76.20;;;;;;4877913;29;20044;-53
2021/09/27 09:33:37;;;;;;;13.95;4.95;;;34.30;72.10;;;;;;4897855;29;20210;-52
2021/09/27 09:36:03;;;;;;;12.23;5.45;;;34.50;71.20;;;;;;4916039;29;20052;-53
2021/09/27 09:38:34;;;;;;;15.55;5.82;;;34.70;68.20;;;;;;4912883;29;20076;-52
2021/09/27 09:41:01;;;;;;;12.05;5.47;;;34.20;70.00;;;;;;4914500;29;20044;-50
2021/09/27 09:43:28;;;;;;;14.27;6.45;;;34.30;69.80;;;;;;4914252;29;20389;-48
2021/09/27 09:46:11;;;;;;;11.70;5.03;;;34.50;70.50;;;;;;4915120;29;20123;-51
2021/09/27 09:49:00;;;;;;;11.48;5.43;;;34.20;82.30;;;;;;4895038;29;20127;-50
2021/09/27 09:51:33;;;;;;;16.67;5.97;;;;;;;;;;4906147;29;20043;-52
2021/09/27 09:54:10;;;;;;;12.57;6.00;;;34.80;70.90;;;;;;4950186;29;20046;-48
2021/09/27 09:56:38;;;;;;;14.45;5.47;;;;;;;;;;4938445;29;20039;-50
2021/09/27 09:59:22;;;;;;;11.27;5.07;;;;;;;;;;4943330;29;20155;-51
2021/09/27 10:01:52;;;;;;;17.45;4.90;;;34.60;85.10;;;;;;4942670;29;20031;-52
2021/09/27 10:04:22;;;;;;;9.27;4.38;;;34.80;87.90;;;;;;4986419;28;20393;-50
2021/09/27 10:06:50;;;;;;;11.40;4.60;;;;;;;;;;5010199;28;20382;-52
2021/09/27 10:09:30;;;;;;;11.98;5.28;;;;;;;;;;5010940;28;20033;-54
2021/09/27 10:12:07;;;;;;;15.02;5.47;;;;;;;;;;5011030;28;20037;-51
2021/09/27 10:14:36;;;;;;;16.73;4.95;;;;;;;;;;5007406;28;20100;-53
2021/09/27 10:17:11;;;;;;;16.13;5.35;;;;;;;;;;5004533;28;20032;-48
2021/09/27 10:19:55;;;;;;;17.88;5.03;;;35.00;65.70;;;;;;5024300;28;20073;-48
2021/09/27 10:22:24;;;;;;;9.88;4.60;;;35.60;66.30;;;;;;5009697;28;20125;-51
2021/09/27 10:24:59;;;;;;;11.55;4.85;;;35.40;64.80;;;;;;5013409;28;20076;-53
2021/09/27 10:27:40;;;;;;;11.27;4.63;;;35.20;64.80;;;;;;5009030;28;20389;-53
2021/09/27 10:30:14;;;;;;;20.23;7.88;;;35.20;64.70;;;;;;5004806;28;20113;-52
2021/09/27 10:32:45;;;;;;;12.23;5.22;;;35.20;66.00;;;;;;5009943;28;21485;-48
2021/09/27 10:35:45;;;;;;;12.68;5.07;;;35.30;64.50;;;;;;5009946;28;20102;-50
2021/09/27 10:38:14;;;;;;;10.00;4.68;;;;;;;;;;4974485;28;20584;-51
2021/09/27 10:40:41;;;;;;;7.65;4.28;;;;;;;;;;4987724;28;20042;-52
2021/09/27 10:43:13;;;;;;;18.42;6.72;;;35.30;93.20;;;;;;4988815;28;20482;-50
2021/09/27 10:45:42;;;;;;;13.38;4.85;;;35.20;64.90;;;;;;4990740;28;20073;-52
2021/09/27 10:48:08;;;;;;;10.40;4.90;;;34.90;63.30;;;;;;4988360;28;20049;-51
2021/09/27 10:50:44;;;;;;;11.57;5.07;;;34.70;63.60;;;;;;4990965;28;20109;-52
2021/09/27 10:53:33;;;;;;;10.45;5.03;;;34.60;64.30;;;;;;4989549;28;20050;-52
2021/09/27 10:56:22;;;;;;;8.65;4.30;;;34.40;64.20;;;;;;4900775;29;20040;-53
2021/09/27 10:58:58;;;;;;;9.90;4.95;;;34.10;63.90;;;;;;4868303;29;20044;-50
2021/09/27 11:01:35;;;;;;;10.00;4.30;;;34.40;63.20;;;;;;4868709;29;20042;-51
2021/09/27 11:04:01;;;;;;;12.30;5.25;;;34.40;62.40;;;;;;4881627;29;20849;-52
2021/09/27 11:06:26;;;;;;;9.20;3.63;;;34.60;63.50;;;;;;4881030;29;20056;-51
2021/09/27 11:09:28;;;;;;;9.25;3.75;;;34.00;61.90;;;;;;4896488;29;20067;-52
2021/09/27 11:11:58;;;;;;;;;;;34.10;63.60;;;;;;4899548;29;20044;-52
2021/09/27 11:14:35;;;;;;;9.52;4.40;;;34.40;63.30;;;;;;4905706;29;19934;-52
2021/09/27 11:17:06;;;;;;;9.32;4.35;;;34.70;62.90;;;;;;4880084;29;20070;-53
2021/09/27 11:19:32;;;;;;;11.70;4.70;;;34.50;63.10;;;;;;4899674;29;20036;-51
2021/09/27 11:22:34;;;;;;;9.27;4.30;;;34.20;62.70;;;;;;4899001;29;20119;-51
2021/09/27 11:25:33;;;;;;;13.00;5.03;;;34.20;62.50;;;;;;4904096;29;20408;-53
2021/09/27 11:28:04;;;;;;;10.55;4.15;;;34.00;62.70;;;;;;4930646;29;20110;-51
2021/09/27 11:31:03;;;;;;;5.57;4.05;;;34.10;62.80;;;;;;4920767;29;20044;-52
2021/09/27 11:33:32;;;;;;;8.50;4.40;;;34.00;62.40;;;;;;4936807;29;20036;-52
2021/09/27 11:36:18;;;;;;;6.63;4.00;;;33.90;62.20;;;;;;4935201;29;20582;-50
2021/09/27 11:38:46;;;;;;;6.57;4.05;;;;;;;;;;4935078;29;20040;-53
2021/09/27 11:41:12;;;;;;;9.85;4.30;;;;;;;;;;4933752;29;20500;-52
2021/09/27 11:43:57;;;;;;;9.10;4.40;;;;;;;;;;4936129;29;20032;-52
2021/09/27 11:46:23;;;;;;;7.95;4.10;;;;;;;;;;4930125;29;20048;-52
2021/09/27 11:48:55;;;;;;;11.27;4.45;;;;;;;;;;4928331;29;20043;-50
2021/09/27 11:51:24;;;;;;;10.65;4.97;;;;;;;;;;4929215;29;20456;-51
2021/09/27 11:54:01;;;;;;;8.68;4.13;;;;;;;;;;4920360;29;20046;-51
2021/09/27 11:56:51;;;;;;;11.60;4.13;;;;;;;;;;4933758;29;20077;-51
2021/09/27 11:59:21;;;;;;;10.60;4.60;;;;;;;;;;4935549;29;20038;-51
2021/09/27 12:02:07;;;;;;;8.13;3.95;;;;;;;;;;4935099;29;20055;-52
2021/09/27 12:04:45;;;;;;;7.65;4.10;;;;;;;;;;4928683;29;20039;-52
2021/09/27 12:07:14;;;;;;;11.10;4.20;;;;;;;;;;4934794;29;20055;-51
2021/09/27 12:09:45;;;;;;;7.07;4.20;;;;;;;;;;4934616;29;20067;-52
2021/09/27 12:12:19;;;;;;;10.38;5.38;;;;;;;;;;4935569;29;20044;-51
2021/09/27 12:14:46;;;;;;;8.13;3.85;;;;;;;;;;4934623;29;20036;-50
2021/09/27 12:17:16;;;;;;;10.50;4.45;;;;;;;;;;4936265;29;20480;-51
2021/09/27 12:19:47;;;;;;;8.38;4.05;;;;;;;;;;4935596;29;20549;-50
2021/09/27 12:22:17;;;;;;;12.07;3.95;;;;;;;;;;4918171;29;20048;-50
2021/09/27 12:24:44;;;;;;;8.68;4.25;;;;;;;;;;4933043;29;20127;-50
2021/09/27 12:27:21;;;;;;;11.57;4.63;;;33.50;75.90;;;;;;4928839;29;20396;-51
2021/09/27 12:29:50;;;;;;;7.90;4.45;;;;;;;;;;4926239;29;20476;-51
2021/09/27 12:32:22;;;;;;;12.32;4.45;;;33.40;93.30;;;;;;4927003;29;20029;-51
2021/09/27 12:34:48;;;;;;;18.58;5.32;;;33.40;80.60;;;;;;4928830;29;20408;-50
2021/09/27 12:37:16;;;;;;;9.25;4.45;;;;;;;;;;4933404;29;20496;-51
2021/09/27 12:39:42;;;;;;;6.65;4.50;;;;;;;;;;4926527;29;20032;-50
2021/09/27 12:42:15;;;;;;;11.40;5.32;;;;;;;;;;4988239;28;20450;-50
2021/09/27 12:44:45;;;;;;;12.07;5.30;;;;;;;;;;5012461;28;20102;-50
2021/09/27 12:47:11;;;;;;;14.15;5.60;;;;;;;;;;5011694;28;20037;-51
2021/09/27 12:49:49;;;;;;;10.85;5.85;;;;;;;;;;5011304;28;20022;-51
2021/09/27 12:52:18;;;;;;;8.75;5.05;;;;;;;;;;5007369;28;20037;-52
2021/09/27 12:54:47;;;;;;;11.90;4.97;;;;;;;;;;5013584;28;20034;-52
2021/09/27 12:57:26;;;;;;;9.88;5.30;;;;;;;;;;5008956;28;20049;-51
2021/09/27 12:59:53;;;;;;;9.15;4.93;;;;;;;;;;4993523;28;20132;-50
2021/09/27 13:02:20;;;;;;;11.20;6.30;;;;;;;;;;5010694;28;20033;-52
2021/09/27 13:04:54;;;;;;;13.30;4.93;;;;;;;;;;5000737;28;20033;-51
2021/09/27 13:07:23;;;;;;;10.45;5.05;;;;;;;;;;5012058;28;20047;-51
2021/09/27 13:09:55;;;;;;;10.45;4.75;;;;;;;;;;5011698;28;20382;-52
2021/09/27 13:12:25;;;;;;;15.07;6.35;;;;;;;;;;5011298;28;20037;-51
2021/09/27 13:15:13;;;;;;;14.30;6.05;;;;;;;;;;4990269;28;20038;-52
2021/09/27 13:17:57;;;;;;;16.42;5.90;;;;;;;;;;5009581;28;20490;-51
2021/09/27 13:20:29;;;;;;;10.23;5.40;;;;;;;;;;5010689;28;20030;-47
2021/09/27 13:22:55;;;;;;;11.43;5.38;;;;;;;;;;4989110;28;20039;-50
2021/09/27 13:25:24;;;;;;;20.92;7.20;;;;;;;;;;4989471;28;20051;-49
2021/09/27 13:27:54;;;;;;;10.60;5.43;;;;;;;;;;4988152;28;20060;-48
2021/09/27 13:30:20;;;;;;;10.90;6.18;;;;;;;;;;4956054;28;20042;-51
2021/09/27 13:33:06;;;;;;;10.88;5.75;;;;;;;;;;4988903;28;20088;-48
2021/09/27 13:35:37;;;;;;;12.23;5.82;;;;;;;;;;4934498;29;20051;-52
2021/09/27 13:38:06;;;;;;;12.65;5.88;;;;;;;;;;4951040;28;20043;-49
2021/09/27 13:40:32;;;;;;;10.98;6.30;;;;;;;;;;4949669;28;20073;-48
2021/09/27 13:43:04;;;;;;;10.82;5.15;;;;;;;;;;4949195;28;20035;-51
2021/09/27 13:45:36;;;;;;;10.63;5.15;;;;;;;;;;4952478;28;20626;-54
2021/09/27 13:48:03;;;;;;;10.85;5.82;;;;;;;;;;4951697;28;20058;-52
2021/09/27 13:50:29;;;;;;;9.82;5.75;;;;;;;;;;4950072;29;20047;-47
2021/09/27 13:53:07;;;;;;;13.15;6.32;;;;;;;;;;4921094;28;20554;-49
2021/09/27 13:55:33;;;;;;;10.82;6.25;;;;;;;;;;4964225;28;20043;-49
2021/09/27 13:57:59;;;;;;;8.57;5.40;;;;;;;;;;4958995;28;20046;-50
2021/09/27 14:00:26;;;;;;;10.38;5.60;;;;;;;;;;4964124;28;20101;-50
2021/09/27 14:02:52;;;;;;;11.73;6.00;;;;;;;;;;4934296;28;20039;-51